This is the latest recevied weather packets stored in our database for station/object 9W2CEW-1. If no packets are shown the sender has not sent any weather packets the latest 10 day(s).
| Time | Temp. | Humidity | Pressure | Rain* | Wind** | Luminosity | Snow |
|---|---|---|---|---|---|---|---|
| 1787940513 | 38.33° C | 41% | 1005 hPa | - | - | - | - |
| 1787940187 | 37.78° C | 41% | 1002.6 hPa | - | - | - | - |
| 1787939613 | 36.67° C | 46% | 1005.4 hPa | - | - | - | - |
| 1787938713 | 36.67° C | 45% | 1005.5 hPa | - | - | - | - |
| 1787938381 | 37.78° C | 41% | 1002.8 hPa | - | - | - | - |
| 1787937812 | 37.22° C | 43% | 1005.6 hPa | - | - | - | - |
| 1787936912 | 35.56° C | 48% | 1005.9 hPa | - | - | - | - |
| 1787936014 | 37.22° C | 45% | 1006 hPa | - | - | - | - |
| 1787935112 | 38.33° C | 41% | 1006.1 hPa | - | - | - | - |
| 1787934220 | 38.89° C | 40% | 1006.3 hPa | - | - | - | - |
| 1787933312 | 37.78° C | 43% | 1006.4 hPa | - | - | - | - |
| 1787932412 | 37.22° C | 44% | 1006.3 hPa | - | - | - | - |
| 1787931512 | 37.22° C | 44% | 1006.4 hPa | - | - | - | - |
| 1787930612 | 37.22° C | 44% | 1006.3 hPa | - | - | - | - |
| 1787930133 | 38.33° C | 39% | 1003.2 hPa | - | - | - | - |
| 1787929711 | 36.11° C | 46% | 1006.6 hPa | - | - | - | - |
| 1787928821 | 37.22° C | 44% | 1006.4 hPa | - | - | - | - |
| 1787927911 | 36.11° C | 46% | 1006.2 hPa | - | - | - | - |
| 1787927011 | 38.33° C | 42% | 1005.9 hPa | - | - | - | - |
| 1787926121 | 35.56° C | 48% | 1005.6 hPa | - | - | - | - |
| 1787925213 | 36.67° C | 45% | 1005.5 hPa | - | - | - | - |
| 1787924316 | 36.11° C | 46% | 1005.2 hPa | - | - | - | - |
| 1787923413 | 37.78° C | 41% | 1005.2 hPa | - | - | - | - |
| 1787922515 | 36.11° C | 45% | 1004.8 hPa | - | - | - | - |
| 1787921612 | 36.11° C | 46% | 1004.6 hPa | - | - | - | - |
* Rain since midnight (hover to see other rain measurements)
** Current wind speed in m/s (hover to see current wind gust speed)